createdAt,value
2023-04-02T02:37:56.899Z,0.70
2023-04-02T02:40:32.126Z,0.90
2023-04-02T02:43:02.121Z,1.13
2023-04-02T02:45:36.388Z,1.00
2023-04-02T02:48:06.425Z,1.10
2023-04-02T02:50:35.502Z,1.60
2023-04-02T02:53:24.568Z,1.50
2023-04-02T02:55:58.512Z,1.50
2023-04-02T02:58:32.134Z,1.48
2023-04-02T03:01:14.066Z,1.52
2023-04-02T03:03:44.904Z,1.67
2023-04-02T03:06:16.970Z,1.45
2023-04-02T03:09:12.562Z,1.38
2023-04-02T03:11:45.810Z,1.35
2023-04-02T03:14:20.773Z,1.30
2023-04-02T03:16:51.532Z,1.55
2023-04-02T03:19:28.254Z,1.50
2023-04-02T03:22:05.534Z,1.67
2023-04-02T03:24:46.071Z,1.50
2023-04-02T03:27:19.223Z,1.80
2023-04-02T03:29:59.956Z,1.60
2023-04-02T03:32:31.382Z,1.77
2023-04-02T03:35:21.806Z,1.90
2023-04-02T03:38:02.765Z,1.73
2023-04-02T03:40:49.609Z,1.58
2023-04-02T03:43:25.507Z,1.70
2023-04-02T03:46:06.225Z,1.90
2023-04-02T03:48:39.912Z,1.83
2023-04-02T03:51:18.889Z,1.70
2023-04-02T03:53:47.603Z,1.50
2023-04-02T03:56:26.750Z,1.83
2023-04-02T03:59:21.334Z,1.83
2023-04-02T04:02:03.984Z,1.60
2023-04-02T04:04:32.542Z,1.65
2023-04-02T04:07:01.145Z,1.92
2023-04-02T04:09:39.640Z,1.70
2023-04-02T04:12:10.369Z,1.88
2023-04-02T04:14:43.922Z,1.92
2023-04-02T04:17:17.827Z,1.63
2023-04-02T04:19:49.661Z,1.35
2023-04-02T04:22:30.233Z,1.60
2023-04-02T04:25:21.449Z,1.45
2023-04-02T04:28:44.874Z,1.70
2023-04-02T04:31:21.848Z,5.73
2023-04-02T04:33:55.288Z,15.13
2023-04-02T04:36:30.095Z,14.77
2023-04-02T04:39:14.748Z,15.52
2023-04-02T04:41:48.400Z,18.63
2023-04-02T04:44:22.558Z,19.50
2023-04-02T04:47:11.152Z,18.88
2023-04-02T04:49:42.843Z,17.92
2023-04-02T04:52:41.701Z,16.45
2023-04-02T04:55:29.372Z,16.20
2023-04-02T04:58:14.314Z,14.73
2023-04-02T05:01:06.231Z,15.18
2023-04-02T05:03:40.007Z,13.30
2023-04-02T05:06:13.944Z,13.02
2023-04-02T05:08:46.010Z,12.38
2023-04-02T05:11:46.007Z,13.10
2023-04-02T05:14:35.356Z,11.88
2023-04-02T05:17:08.340Z,10.88
2023-04-02T05:19:53.822Z,11.63
2023-04-02T05:22:44.865Z,11.70
2023-04-02T05:25:25.898Z,11.23
2023-04-02T05:27:58.287Z,9.98
2023-04-02T05:30:26.957Z,9.35
2023-04-02T05:33:08.059Z,9.13
2023-04-02T05:35:38.328Z,9.35
2023-04-02T05:38:06.886Z,9.13
2023-04-02T05:40:39.224Z,8.48
2023-04-02T05:43:11.565Z,7.90
2023-04-02T05:45:46.229Z,7.57
2023-04-02T05:48:20.036Z,7.82
2023-04-02T05:50:52.128Z,7.30
2023-04-02T05:53:25.924Z,8.02
2023-04-02T05:56:20.480Z,6.97
2023-04-02T05:58:58.233Z,7.35
2023-04-02T06:02:08.029Z,6.85
2023-04-02T06:04:53.061Z,6.28
2023-04-02T06:07:24.091Z,6.03
2023-04-02T06:10:11.294Z,6.18
2023-04-02T06:12:49.106Z,6.72
2023-04-02T06:15:21.693Z,6.13
2023-04-02T06:17:59.326Z,5.65
2023-04-02T06:20:28.245Z,5.45
2023-04-02T06:23:19.033Z,5.82
2023-04-02T06:25:54.867Z,5.25
2023-04-02T06:28:58.632Z,4.80
2023-04-02T06:31:47.416Z,4.95
2023-04-02T06:34:20.072Z,4.53
2023-04-02T06:37:06.718Z,4.43
2023-04-02T06:39:36.456Z,4.60
2023-04-02T06:42:11.373Z,4.35
2023-04-02T06:44:58.174Z,4.47
2023-04-02T06:47:47.263Z,4.30
2023-04-02T06:50:28.361Z,4.63
2023-04-02T06:53:00.953Z,4.53
2023-04-02T06:55:32.140Z,4.10
2023-04-02T06:58:01.190Z,3.50
2023-04-02T07:00:43.990Z,4.57
2023-04-02T07:03:28.228Z,4.20
2023-04-02T07:05:59.913Z,4.05
2023-04-02T07:08:28.036Z,4.60
2023-04-02T07:10:56.532Z,4.20
2023-04-02T07:13:25.716Z,3.67
2023-04-02T07:15:54.779Z,3.92
2023-04-02T07:18:28.436Z,4.03
2023-04-02T07:20:57.814Z,3.55
2023-04-02T07:23:26.264Z,3.10
2023-04-02T07:25:55.610Z,3.42
2023-04-02T07:28:23.485Z,3.50
2023-04-02T07:30:52.353Z,3.20
2023-04-02T07:33:23.026Z,3.80
2023-04-02T07:35:51.939Z,3.50
2023-04-02T07:38:24.224Z,3.92
2023-04-02T07:40:52.014Z,3.13
2023-04-02T07:43:20.731Z,3.40
2023-04-02T07:45:48.397Z,3.55
2023-04-02T07:48:16.371Z,3.90
2023-04-02T07:50:44.108Z,3.70
2023-04-02T07:53:35.747Z,3.40
2023-04-02T07:56:04.484Z,3.53
2023-04-02T07:58:33.207Z,3.10
2023-04-02T08:01:04.576Z,3.33
2023-04-02T08:03:33.123Z,2.90
2023-04-02T08:06:00.931Z,3.15
2023-04-02T08:08:28.788Z,3.00
2023-04-02T08:10:56.630Z,3.03
2023-04-02T08:13:24.377Z,3.10
2023-04-02T08:15:52.199Z,3.00
2023-04-02T08:18:23.652Z,2.83
2023-04-02T08:20:52.810Z,3.03
2023-04-02T08:23:21.806Z,2.85
2023-04-02T08:25:49.933Z,2.90
2023-04-02T08:28:18.153Z,2.92
2023-04-02T08:30:45.942Z,2.63
2023-04-02T08:33:13.780Z,2.88
2023-04-02T08:35:41.757Z,2.40
2023-04-02T08:38:14.831Z,2.40
2023-04-02T08:40:49.432Z,2.28
2023-04-02T08:43:23.740Z,2.60
2023-04-02T08:46:18.838Z,2.55
2023-04-02T08:48:51.857Z,2.50
2023-04-02T08:51:32.192Z,2.35
2023-04-02T08:54:24.648Z,2.58
2023-04-02T08:56:57.306Z,2.92
2023-04-02T08:59:32.569Z,2.50
2023-04-02T09:02:26.601Z,3.05
2023-04-02T09:04:57.349Z,3.08
2023-04-02T09:07:26.898Z,3.15
2023-04-02T09:09:54.711Z,3.67
2023-04-02T09:12:31.927Z,3.15
2023-04-02T09:15:07.532Z,2.97
2023-04-02T09:17:50.576Z,3.40
2023-04-02T09:20:24.752Z,3.28
2023-04-02T09:22:54.699Z,3.08
2023-04-02T09:25:28.673Z,2.72
2023-04-02T09:27:58.897Z,2.90
2023-04-02T09:30:30.061Z,2.70
2023-04-02T09:33:03.306Z,2.28
2023-04-02T09:35:32.883Z,2.25
2023-04-02T09:38:19.077Z,2.42
2023-04-02T09:40:55.751Z,2.58
2023-04-02T09:43:26.285Z,2.47
2023-04-02T09:46:04.517Z,2.75
2023-04-02T09:48:40.960Z,2.15
2023-04-02T09:51:21.730Z,2.20
2023-04-02T09:54:03.071Z,2.25
2023-04-02T09:56:32.838Z,2.30
2023-04-02T09:59:15.612Z,2.15
2023-04-02T10:01:53.778Z,2.10
2023-04-02T10:04:36.068Z,1.75
2023-04-02T10:07:06.587Z,1.90
2023-04-02T10:09:36.860Z,1.70
2023-04-02T10:12:07.155Z,2.08
2023-04-02T10:14:39.199Z,2.08
2023-04-02T10:17:18.106Z,1.45
2023-04-02T10:19:52.703Z,1.80
2023-04-02T10:22:22.408Z,1.77
2023-04-02T10:24:50.984Z,1.80
2023-04-02T10:27:29.938Z,1.95
2023-04-02T10:30:19.395Z,1.50
2023-04-02T10:33:01.536Z,1.80
2023-04-02T10:36:09.181Z,1.30
2023-04-02T10:39:02.748Z,1.42
2023-04-02T10:41:54.576Z,1.50
2023-04-02T10:44:31.440Z,1.42
2023-04-02T10:47:27.467Z,1.67
2023-04-02T10:50:08.452Z,1.40
2023-04-02T10:52:36.183Z,1.48
2023-04-02T10:55:20.118Z,1.50
2023-04-02T10:57:48.097Z,1.20
2023-04-02T11:00:23.131Z,1.30
2023-04-02T11:03:07.426Z,1.60
2023-04-02T11:05:40.968Z,1.33
2023-04-02T11:08:33.446Z,1.25
2023-04-02T11:11:18.463Z,1.17
2023-04-02T11:13:56.867Z,1.30
2023-04-02T11:16:25.530Z,1.25
2023-04-02T11:19:15.041Z,1.30
2023-04-02T11:21:57.199Z,1.30
2023-04-02T11:24:33.025Z,0.98
2023-04-02T11:27:10.007Z,1.40
2023-04-02T11:29:40.932Z,1.23
2023-04-02T11:32:20.980Z,1.20
2023-04-02T11:34:56.466Z,1.15
2023-04-02T11:37:34.567Z,0.95
2023-04-02T11:40:11.836Z,1.25
2023-04-02T11:42:41.091Z,1.30
2023-04-02T11:45:24.103Z,1.23
2023-04-02T11:48:08.564Z,1.13
2023-04-02T11:50:39.497Z,1.08
2023-04-02T11:53:16.889Z,1.20
2023-04-02T11:56:06.067Z,1.10
2023-04-02T11:58:45.896Z,1.20
2023-04-02T12:01:19.670Z,1.42
2023-04-02T12:04:06.951Z,1.38
2023-04-02T12:06:47.354Z,1.35
2023-04-02T12:09:28.945Z,1.48
2023-04-02T12:12:01.210Z,1.20
2023-04-02T12:17:35.594Z,1.40
2023-04-02T12:20:09.303Z,1.30
2023-04-02T12:22:46.842Z,1.10
2023-04-02T12:25:40.191Z,1.33
2023-04-02T12:28:20.744Z,1.20
2023-04-02T12:30:50.064Z,1.20
2023-04-02T12:33:21.138Z,1.20
2023-04-02T12:35:51.384Z,1.20
2023-04-02T12:38:39.386Z,1.40
2023-04-02T12:41:24.707Z,1.45
2023-04-02T12:44:00.277Z,1.27
2023-04-02T12:46:29.941Z,1.40
2023-04-02T12:49:19.644Z,1.42
2023-04-02T12:51:48.538Z,1.27
2023-04-02T12:54:18.095Z,1.42
2023-04-02T12:56:45.984Z,1.92
2023-04-02T12:59:28.000Z,1.02
2023-04-02T13:02:01.096Z,1.30
2023-04-02T13:04:28.920Z,1.10
2023-04-02T13:06:57.068Z,1.30
2023-04-02T13:09:35.985Z,1.13
2023-04-02T13:12:04.018Z,1.20
2023-04-02T13:14:31.802Z,1.20
2023-04-02T13:16:59.656Z,1.38
2023-04-02T13:19:28.774Z,1.15
2023-04-02T13:21:57.655Z,1.10
2023-04-02T13:24:35.807Z,1.10
2023-04-02T13:27:04.179Z,1.23
2023-04-02T13:29:36.648Z,1.15
2023-04-02T13:32:11.617Z,1.27
2023-04-02T13:34:39.509Z,1.00
2023-04-02T13:37:07.145Z,1.20
2023-04-02T13:39:34.842Z,1.20
2023-04-02T13:42:03.953Z,1.05
2023-04-02T13:44:33.483Z,1.15
2023-04-02T13:47:01.429Z,1.25
2023-04-02T13:49:29.632Z,0.93
2023-04-02T13:52:00.039Z,1.05
2023-04-02T13:54:41.794Z,1.00
2023-04-02T13:57:09.573Z,1.10
2023-04-02T13:59:37.458Z,1.27
2023-04-02T14:02:10.612Z,0.90
2023-04-02T14:04:46.343Z,1.20
2023-04-02T14:07:27.765Z,1.10
2023-04-02T14:10:23.331Z,1.13
2023-04-02T14:12:53.964Z,0.90
2023-04-02T14:15:47.247Z,1.20
2023-04-02T14:18:33.040Z,1.00
2023-04-02T14:21:26.696Z,1.10
2023-04-02T14:23:54.443Z,1.02
2023-04-02T14:26:51.882Z,1.10
2023-04-02T14:29:40.957Z,0.98
2023-04-02T14:32:29.983Z,1.02
2023-04-02T14:35:18.906Z,1.02
2023-04-02T14:38:02.113Z,1.00
2023-04-02T14:40:52.230Z,0.95
2023-04-02T14:43:53.545Z,1.20
2023-04-02T14:46:26.503Z,1.10
2023-04-02T14:49:25.923Z,1.10
2023-04-02T14:52:11.514Z,1.10
2023-04-02T14:54:50.423Z,1.10
2023-04-02T14:57:23.792Z,1.48
2023-04-02T15:00:01.841Z,1.05
2023-04-02T15:02:35.168Z,1.08
2023-04-02T15:05:28.308Z,1.20
2023-04-02T15:08:06.707Z,1.05
2023-04-02T15:10:39.393Z,1.13
2023-04-02T15:13:14.978Z,1.13
2023-04-02T15:15:56.626Z,1.13
2023-04-02T15:18:25.729Z,1.10
2023-04-02T15:21:49.829Z,1.17
2023-04-02T15:24:43.442Z,1.10
2023-04-02T15:27:29.623Z,1.10
2023-04-02T15:30:19.065Z,1.10
2023-04-02T15:32:47.383Z,1.10
2023-04-02T15:35:34.024Z,0.90
2023-04-02T15:38:05.614Z,0.90
2023-04-02T15:41:00.969Z,0.90
2023-04-02T15:43:47.484Z,1.05
2023-04-02T15:46:43.003Z,1.00
2023-04-02T15:49:13.567Z,1.02
2023-04-02T15:52:05.572Z,1.00
2023-04-02T15:55:04.309Z,0.85
2023-04-02T15:57:58.247Z,1.10
2023-04-02T16:00:30.814Z,1.13
2023-04-02T16:03:21.062Z,1.05
2023-04-02T16:06:09.162Z,1.00
2023-04-02T16:08:54.798Z,0.98
2023-04-02T16:11:23.105Z,1.10
2023-04-02T16:13:50.880Z,1.20
2023-04-02T16:16:22.031Z,1.08
2023-04-02T16:19:16.858Z,0.93
2023-04-02T16:21:51.838Z,1.00
2023-04-02T16:24:19.967Z,1.00
2023-04-02T16:26:47.665Z,0.98
2023-04-02T16:29:40.751Z,1.00
2023-04-02T16:32:39.933Z,1.30
2023-04-02T16:38:38.768Z,0.95
2023-04-02T16:41:19.714Z,0.90
2023-04-02T16:43:59.842Z,1.20
2023-04-02T16:46:38.738Z,0.98
2023-04-02T16:49:20.119Z,1.10
2023-04-02T16:51:47.779Z,1.17
2023-04-02T16:54:49.482Z,1.00
2023-04-02T16:57:29.218Z,1.00
2023-04-02T17:00:22.056Z,1.20
2023-04-02T17:06:13.420Z,1.10
2023-04-02T17:08:48.476Z,1.23
2023-04-02T17:11:35.518Z,1.45
2023-04-02T17:14:29.769Z,1.20
2023-04-02T17:17:03.864Z,1.23
2023-04-02T17:19:33.235Z,1.30
2023-04-02T17:22:03.347Z,1.40
2023-04-02T17:24:41.065Z,1.52
2023-04-02T17:27:29.653Z,1.58
2023-04-02T17:30:01.676Z,1.67
2023-04-02T17:32:32.852Z,1.70
2023-04-02T17:35:17.301Z,1.88
2023-04-02T17:37:55.725Z,1.70
2023-04-02T17:40:34.171Z,1.70
2023-04-02T17:43:18.357Z,1.80
2023-04-02T17:45:51.131Z,1.70
2023-04-02T17:48:31.558Z,1.50
2023-04-02T17:52:01.121Z,1.90
2023-04-02T17:54:53.762Z,1.70
2023-04-02T17:57:55.234Z,1.85
2023-04-02T18:00:37.125Z,1.83
2023-04-02T18:03:31.301Z,1.70
2023-04-02T18:06:25.641Z,2.35
2023-04-02T18:09:38.195Z,2.30
2023-04-02T18:12:24.506Z,2.20
2023-04-02T18:15:18.763Z,2.58
2023-04-02T18:18:09.276Z,2.70
2023-04-02T18:20:51.331Z,2.90
2023-04-02T18:24:00.910Z,2.33
2023-04-02T18:26:43.397Z,2.17
2023-04-02T18:29:25.686Z,2.75
2023-04-02T18:32:05.233Z,3.33
2023-04-02T18:35:03.037Z,2.72
2023-04-02T18:37:55.424Z,2.70
